This is the latest recevied weather packets stored in our database for station/object EA7AZH-5. If no packets are shown the sender has not sent any weather packets the latest 10 day(s).
| Time | Temp. | Humidity | Pressure | Rain* | Wind** | Luminosity | Snow |
|---|---|---|---|---|---|---|---|
| 1777675419 | 22.22° C | 66% | 1019.9 hPa | - | - | - | - |
| 1777674222 | 21.67° C | 68% | 1019.9 hPa | - | - | - | - |
| 1777671224 | 21.67° C | 66% | 1019.7 hPa | - | - | - | - |
| 1777670024 | 21.11° C | 69% | 1019.4 hPa | - | - | - | - |
| 1777668219 | 21.67° C | 65% | 1019.3 hPa | - | - | - | - |
| 1777667019 | 21.67° C | 66% | 1019.1 hPa | - | - | - | - |
| 1777666419 | 21.67° C | 66% | 1018.9 hPa | - | - | - | - |
| 1777664019 | 21.67° C | 63% | 1018.4 hPa | - | - | - | - |
| 1777662819 | 22.22° C | 60% | 1018.2 hPa | - | - | - | - |
| 1777662224 | 21.67° C | 63% | 1017.9 hPa | - | - | - | - |
| 1777661019 | 22.78° C | 60% | 1018 hPa | - | - | - | - |
| 1777655618 | 22.22° C | 63% | 1018.1 hPa | - | - | - | - |
| 1777654418 | 22.22° C | 63% | 1018.1 hPa | - | - | - | - |
| 1777653818 | 22.78° C | 62% | 1018.2 hPa | - | - | - | - |
| 1777652018 | 22.78° C | 61% | 1018.5 hPa | - | - | - | - |
| 1777650818 | 22.22° C | 63% | 1018.5 hPa | - | - | - | - |
| 1777649618 | 22.22° C | 63% | 1018.5 hPa | - | - | - | - |
| 1777647218 | 22.22° C | 62% | 1018.7 hPa | - | - | - | - |
| 1777646618 | 21.67° C | 63% | 1018.7 hPa | - | - | - | - |
| 1777646018 | 22.22° C | 62% | 1018.7 hPa | - | - | - | - |
| 1777644218 | 21.67° C | 65% | 1018.7 hPa | - | - | - | - |
| 1777634018 | 21.67° C | 63% | 1018.9 hPa | - | - | - | - |
| 1777632822 | 21.67° C | 64% | 1018.7 hPa | - | - | - | - |
| 1777629217 | 22.22° C | 62% | 1018.4 hPa | - | - | - | - |
| 1777628017 | 22.22° C | 61% | 1018.4 hPa | - | - | - | - |
* Rain since midnight (hover to see other rain measurements)
** Current wind speed in m/s (hover to see current wind gust speed)